sensor_id;sensor_type;location;lat;lon;timestamp;temperature;humidity
20829;DHT22;10575;50.124;8.582;2024-02-28T00:02:18;6.00;99.90
20829;DHT22;10575;50.124;8.582;2024-02-28T00:04:43;6.00;99.90
20829;DHT22;10575;50.124;8.582;2024-02-28T00:07:09;5.90;99.90
20829;DHT22;10575;50.124;8.582;2024-02-28T00:09:34;5.90;99.90
20829;DHT22;10575;50.124;8.582;2024-02-28T00:12:00;5.70;99.90
20829;DHT22;10575;50.124;8.582;2024-02-28T00:14:25;5.60;99.90
20829;DHT22;10575;50.124;8.582;2024-02-28T00:16:51;5.60;99.90
20829;DHT22;10575;50.124;8.582;2024-02-28T00:19:16;5.70;99.90
20829;DHT22;10575;50.124;8.582;2024-02-28T00:21:43;5.50;99.90
20829;DHT22;10575;50.124;8.582;2024-02-28T00:24:09;5.50;99.90
20829;DHT22;10575;50.124;8.582;2024-02-28T00:26:35;5.40;99.90
20829;DHT22;10575;50.124;8.582;2024-02-28T00:29:01;5.40;99.90
20829;DHT22;10575;50.124;8.582;2024-02-28T00:31:27;5.40;99.90
20829;DHT22;10575;50.124;8.582;2024-02-28T00:33:52;5.40;99.90
20829;DHT22;10575;50.124;8.582;2024-02-28T00:36:18;5.40;99.90
20829;DHT22;10575;50.124;8.582;2024-02-28T00:38:44;5.30;99.90
20829;DHT22;10575;50.124;8.582;2024-02-28T00:41:09;5.30;99.90
20829;DHT22;10575;50.124;8.582;2024-02-28T00:43:35;5.20;99.90
20829;DHT22;10575;50.124;8.582;2024-02-28T00:46:00;5.30;99.90
20829;DHT22;10575;50.124;8.582;2024-02-28T00:48:26;5.20;99.90
20829;DHT22;10575;50.124;8.582;2024-02-28T00:50:56;5.30;99.90
20829;DHT22;10575;50.124;8.582;2024-02-28T00:53:23;5.30;99.90
20829;DHT22;10575;50.124;8.582;2024-02-28T00:55:53;5.20;99.90
20829;DHT22;10575;50.124;8.582;2024-02-28T00:58:24;5.20;99.90
20829;DHT22;10575;50.124;8.582;2024-02-28T01:00:58;5.20;99.90
20829;DHT22;10575;50.124;8.582;2024-02-28T01:06:06;5.20;99.90
20829;DHT22;10575;50.124;8.582;2024-02-28T01:08:31;5.20;99.90
20829;DHT22;10575;50.124;8.582;2024-02-28T01:10:57;5.20;99.90
20829;DHT22;10575;50.124;8.582;2024-02-28T01:13:24;5.20;99.90
20829;DHT22;10575;50.124;8.582;2024-02-28T01:15:49;5.20;99.90
20829;DHT22;10575;50.124;8.582;2024-02-28T01:18:15;5.10;99.90
20829;DHT22;10575;50.124;8.582;2024-02-28T01:20:40;5.10;99.90
20829;DHT22;10575;50.124;8.582;2024-02-28T01:23:06;5.10;99.90
20829;DHT22;10575;50.124;8.582;2024-02-28T01:25:31;5.00;99.90
20829;DHT22;10575;50.124;8.582;2024-02-28T01:27:57;5.00;99.90
20829;DHT22;10575;50.124;8.582;2024-02-28T01:30:25;4.90;99.90
20829;DHT22;10575;50.124;8.582;2024-02-28T01:32:51;4.90;99.90
20829;DHT22;10575;50.124;8.582;2024-02-28T01:35:16;4.90;99.90
20829;DHT22;10575;50.124;8.582;2024-02-28T01:37:42;4.90;99.90
20829;DHT22;10575;50.124;8.582;2024-02-28T01:40:08;4.90;99.90
20829;DHT22;10575;50.124;8.582;2024-02-28T01:42:33;4.90;99.90
20829;DHT22;10575;50.124;8.582;2024-02-28T01:44:59;4.90;99.90
20829;DHT22;10575;50.124;8.582;2024-02-28T01:47:24;4.90;99.90
20829;DHT22;10575;50.124;8.582;2024-02-28T01:49:50;4.90;99.90
20829;DHT22;10575;50.124;8.582;2024-02-28T01:52:17;5.00;99.90
20829;DHT22;10575;50.124;8.582;2024-02-28T01:54:43;4.90;99.90
20829;DHT22;10575;50.124;8.582;2024-02-28T01:57:09;4.90;99.90
20829;DHT22;10575;50.124;8.582;2024-02-28T01:59:34;4.80;99.90
20829;DHT22;10575;50.124;8.582;2024-02-28T02:02:00;4.80;99.90
20829;DHT22;10575;50.124;8.582;2024-02-28T02:04:26;4.90;99.90
20829;DHT22;10575;50.124;8.582;2024-02-28T02:06:51;5.00;99.90
20829;DHT22;10575;50.124;8.582;2024-02-28T02:09:19;5.20;99.90
20829;DHT22;10575;50.124;8.582;2024-02-28T02:11:45;5.20;99.90
20829;DHT22;10575;50.124;8.582;2024-02-28T02:14:11;5.20;99.90
20829;DHT22;10575;50.124;8.582;2024-02-28T02:16:36;5.10;99.90
20829;DHT22;10575;50.124;8.582;2024-02-28T02:19:02;5.20;99.90
20829;DHT22;10575;50.124;8.582;2024-02-28T02:21:30;5.30;99.90
20829;DHT22;10575;50.124;8.582;2024-02-28T02:23:56;5.40;99.90
20829;DHT22;10575;50.124;8.582;2024-02-28T02:26:22;5.30;99.90
20829;DHT22;10575;50.124;8.582;2024-02-28T02:28:47;5.30;99.90
20829;DHT22;10575;50.124;8.582;2024-02-28T02:31:13;5.30;99.90
20829;DHT22;10575;50.124;8.582;2024-02-28T02:33:39;5.10;99.90
20829;DHT22;10575;50.124;8.582;2024-02-28T02:36:04;5.00;99.90
20829;DHT22;10575;50.124;8.582;2024-02-28T02:38:30;5.10;99.90
20829;DHT22;10575;50.124;8.582;2024-02-28T02:40:56;5.10;99.90
20829;DHT22;10575;50.124;8.582;2024-02-28T02:43:22;5.10;99.90
20829;DHT22;10575;50.124;8.582;2024-02-28T02:45:47;5.20;99.90
20829;DHT22;10575;50.124;8.582;2024-02-28T02:48:13;5.20;99.90
20829;DHT22;10575;50.124;8.582;2024-02-28T02:50:38;5.30;99.90
20829;DHT22;10575;50.124;8.582;2024-02-28T02:53:04;5.30;99.90
20829;DHT22;10575;50.124;8.582;2024-02-28T02:55:30;5.30;99.90
20829;DHT22;10575;50.124;8.582;2024-02-28T02:57:55;5.30;99.90
20829;DHT22;10575;50.124;8.582;2024-02-28T03:00:21;5.10;99.90
20829;DHT22;10575;50.124;8.582;2024-02-28T03:02:47;5.10;99.90
20829;DHT22;10575;50.124;8.582;2024-02-28T03:05:13;4.90;99.90
20829;DHT22;10575;50.124;8.582;2024-02-28T03:07:38;4.80;99.90
20829;DHT22;10575;50.124;8.582;2024-02-28T03:10:04;4.70;99.90
20829;DHT22;10575;50.124;8.582;2024-02-28T03:12:30;4.60;99.90
20829;DHT22;10575;50.124;8.582;2024-02-28T03:14:55;4.70;99.90
20829;DHT22;10575;50.124;8.582;2024-02-28T03:17:21;4.70;99.90
20829;DHT22;10575;50.124;8.582;2024-02-28T03:19:49;4.60;99.90
20829;DHT22;10575;50.124;8.582;2024-02-28T03:22:15;4.60;99.90
20829;DHT22;10575;50.124;8.582;2024-02-28T03:24:41;4.60;99.90
20829;DHT22;10575;50.124;8.582;2024-02-28T03:27:07;4.50;99.90
20829;DHT22;10575;50.124;8.582;2024-02-28T03:29:33;4.60;99.90
20829;DHT22;10575;50.124;8.582;2024-02-28T03:31:59;4.60;99.90
20829;DHT22;10575;50.124;8.582;2024-02-28T03:34:25;4.70;99.90
20829;DHT22;10575;50.124;8.582;2024-02-28T03:36:50;4.70;99.90
20829;DHT22;10575;50.124;8.582;2024-02-28T03:39:16;4.70;99.90
20829;DHT22;10575;50.124;8.582;2024-02-28T03:41:42;4.60;99.90
20829;DHT22;10575;50.124;8.582;2024-02-28T03:44:08;4.60;99.90
20829;DHT22;10575;50.124;8.582;2024-02-28T03:46:34;4.60;99.90
20829;DHT22;10575;50.124;8.582;2024-02-28T03:48:59;4.70;99.90
20829;DHT22;10575;50.124;8.582;2024-02-28T03:51:25;4.80;99.90
20829;DHT22;10575;50.124;8.582;2024-02-28T03:53:51;4.90;99.90
20829;DHT22;10575;50.124;8.582;2024-02-28T03:56:25;4.90;99.90
20829;DHT22;10575;50.124;8.582;2024-02-28T03:58:52;4.90;99.90
20829;DHT22;10575;50.124;8.582;2024-02-28T04:01:18;4.90;99.90
20829;DHT22;10575;50.124;8.582;2024-02-28T04:03:44;4.70;99.90
20829;DHT22;10575;50.124;8.582;2024-02-28T04:06:28;4.60;99.90
20829;DHT22;10575;50.124;8.582;2024-02-28T04:09:31;4.50;99.90
20829;DHT22;10575;50.124;8.582;2024-02-28T04:12:43;4.30;99.90
20829;DHT22;10575;50.124;8.582;2024-02-28T04:15:30;4.20;99.90
20829;DHT22;10575;50.124;8.582;2024-02-28T04:17:56;4.00;99.90
20829;DHT22;10575;50.124;8.582;2024-02-28T04:20:22;3.90;99.90
20829;DHT22;10575;50.124;8.582;2024-02-28T04:22:47;3.80;99.90
20829;DHT22;10575;50.124;8.582;2024-02-28T04:25:13;3.90;99.90
20829;DHT22;10575;50.124;8.582;2024-02-28T04:27:38;3.80;99.90
20829;DHT22;10575;50.124;8.582;2024-02-28T04:30:05;3.70;99.90
20829;DHT22;10575;50.124;8.582;2024-02-28T04:32:31;3.80;99.90
20829;DHT22;10575;50.124;8.582;2024-02-28T04:34:56;3.80;99.90
20829;DHT22;10575;50.124;8.582;2024-02-28T04:37:22;3.80;99.90
20829;DHT22;10575;50.124;8.582;2024-02-28T04:39:47;3.80;99.90
20829;DHT22;10575;50.124;8.582;2024-02-28T04:42:13;3.90;99.90
20829;DHT22;10575;50.124;8.582;2024-02-28T04:44:39;3.80;99.90
20829;DHT22;10575;50.124;8.582;2024-02-28T04:47:04;3.80;99.90
20829;DHT22;10575;50.124;8.582;2024-02-28T04:49:30;3.70;99.90
20829;DHT22;10575;50.124;8.582;2024-02-28T04:51:56;3.70;99.90
20829;DHT22;10575;50.124;8.582;2024-02-28T04:54:21;3.60;99.90
20829;DHT22;10575;50.124;8.582;2024-02-28T04:56:47;3.60;99.90
20829;DHT22;10575;50.124;8.582;2024-02-28T04:59:12;3.80;99.90
20829;DHT22;10575;50.124;8.582;2024-02-28T05:01:39;3.80;99.90
20829;DHT22;10575;50.124;8.582;2024-02-28T05:04:06;3.80;99.90
20829;DHT22;10575;50.124;8.582;2024-02-28T05:06:32;3.70;99.90
20829;DHT22;10575;50.124;8.582;2024-02-28T05:08:57;3.70;99.90
20829;DHT22;10575;50.124;8.582;2024-02-28T05:11:23;3.60;99.90
20829;DHT22;10575;50.124;8.582;2024-02-28T05:13:48;3.60;99.90
20829;DHT22;10575;50.124;8.582;2024-02-28T05:16:14;3.60;99.90
20829;DHT22;10575;50.124;8.582;2024-02-28T05:18:40;3.60;99.90
20829;DHT22;10575;50.124;8.582;2024-02-28T05:21:06;3.40;99.90
20829;DHT22;10575;50.124;8.582;2024-02-28T05:23:31;3.30;99.90
20829;DHT22;10575;50.124;8.582;2024-02-28T05:25:57;3.40;99.90
20829;DHT22;10575;50.124;8.582;2024-02-28T05:28:23;3.40;99.90
20829;DHT22;10575;50.124;8.582;2024-02-28T05:33:22;3.50;99.90
20829;DHT22;10575;50.124;8.582;2024-02-28T05:35:48;3.40;99.90
20829;DHT22;10575;50.124;8.582;2024-02-28T05:38:13;3.30;99.90
20829;DHT22;10575;50.124;8.582;2024-02-28T05:40:41;3.20;99.90
20829;DHT22;10575;50.124;8.582;2024-02-28T05:43:07;3.20;99.90
20829;DHT22;10575;50.124;8.582;2024-02-28T05:45:32;3.30;99.90
20829;DHT22;10575;50.124;8.582;2024-02-28T05:47:58;3.20;99.90
20829;DHT22;10575;50.124;8.582;2024-02-28T05:50:23;3.10;99.90
20829;DHT22;10575;50.124;8.582;2024-02-28T05:52:50;3.10;99.90
20829;DHT22;10575;50.124;8.582;2024-02-28T05:55:15;3.10;99.90
20829;DHT22;10575;50.124;8.582;2024-02-28T05:57:41;3.20;99.90
20829;DHT22;10575;50.124;8.582;2024-02-28T06:00:07;3.30;99.90
20829;DHT22;10575;50.124;8.582;2024-02-28T06:02:36;3.30;99.90
20829;DHT22;10575;50.124;8.582;2024-02-28T06:05:02;3.40;99.90
20829;DHT22;10575;50.124;8.582;2024-02-28T06:07:28;3.50;99.90
20829;DHT22;10575;50.124;8.582;2024-02-28T06:09:53;3.50;99.90
20829;DHT22;10575;50.124;8.582;2024-02-28T06:12:19;3.60;99.90
20829;DHT22;10575;50.124;8.582;2024-02-28T06:14:44;3.70;99.90
20829;DHT22;10575;50.124;8.582;2024-02-28T06:17:10;3.90;99.90
20829;DHT22;10575;50.124;8.582;2024-02-28T06:19:35;3.90;99.90
20829;DHT22;10575;50.124;8.582;2024-02-28T06:22:01;4.00;99.90
20829;DHT22;10575;50.124;8.582;2024-02-28T06:24:30;4.00;99.90
20829;DHT22;10575;50.124;8.582;2024-02-28T06:26:55;3.90;99.90
20829;DHT22;10575;50.124;8.582;2024-02-28T06:29:21;3.90;99.90
20829;DHT22;10575;50.124;8.582;2024-02-28T06:31:51;3.80;99.90
20829;DHT22;10575;50.124;8.582;2024-02-28T06:34:23;3.80;99.90
20829;DHT22;10575;50.124;8.582;2024-02-28T06:36:49;3.70;99.90
20829;DHT22;10575;50.124;8.582;2024-02-28T06:39:15;3.80;99.90
20829;DHT22;10575;50.124;8.582;2024-02-28T06:41:41;3.80;99.90
20829;DHT22;10575;50.124;8.582;2024-02-28T06:44:07;3.90;99.90
20829;DHT22;10575;50.124;8.582;2024-02-28T06:46:33;4.10;99.90
20829;DHT22;10575;50.124;8.582;2024-02-28T06:48:58;4.30;99.90
20829;DHT22;10575;50.124;8.582;2024-02-28T06:51:30;4.60;99.90
20829;DHT22;10575;50.124;8.582;2024-02-28T06:53:55;4.80;99.90
20829;DHT22;10575;50.124;8.582;2024-02-28T06:56:22;5.00;99.90
20829;DHT22;10575;50.124;8.582;2024-02-28T06:58:49;5.20;99.90
20829;DHT22;10575;50.124;8.582;2024-02-28T07:01:21;5.50;99.90
20829;DHT22;10575;50.124;8.582;2024-02-28T07:03:46;5.90;99.90
20829;DHT22;10575;50.124;8.582;2024-02-28T07:06:12;6.30;99.90
20829;DHT22;10575;50.124;8.582;2024-02-28T07:08:38;6.60;99.90
20829;DHT22;10575;50.124;8.582;2024-02-28T07:11:03;6.80;99.90
20829;DHT22;10575;50.124;8.582;2024-02-28T07:13:30;6.80;99.90
20829;DHT22;10575;50.124;8.582;2024-02-28T07:15:55;6.80;99.90
20829;DHT22;10575;50.124;8.582;2024-02-28T07:18:23;6.70;99.90
20829;DHT22;10575;50.124;8.582;2024-02-28T07:20:51;6.50;99.90
20829;DHT22;10575;50.124;8.582;2024-02-28T07:23:17;6.30;99.90
20829;DHT22;10575;50.124;8.582;2024-02-28T07:25:43;6.30;99.90
20829;DHT22;10575;50.124;8.582;2024-02-28T07:28:08;6.30;99.90
20829;DHT22;10575;50.124;8.582;2024-02-28T07:30:34;6.20;99.90
20829;DHT22;10575;50.124;8.582;2024-02-28T07:32:59;6.20;99.90
20829;DHT22;10575;50.124;8.582;2024-02-28T07:35:25;6.20;99.90
20829;DHT22;10575;50.124;8.582;2024-02-28T07:37:50;6.30;99.90
20829;DHT22;10575;50.124;8.582;2024-02-28T07:40:16;6.30;99.90
20829;DHT22;10575;50.124;8.582;2024-02-28T07:42:42;6.40;99.90
20829;DHT22;10575;50.124;8.582;2024-02-28T07:45:07;6.40;99.90
20829;DHT22;10575;50.124;8.582;2024-02-28T07:47:34;6.40;99.90
20829;DHT22;10575;50.124;8.582;2024-02-28T07:50:00;6.40;99.90
20829;DHT22;10575;50.124;8.582;2024-02-28T07:52:25;6.60;99.90
20829;DHT22;10575;50.124;8.582;2024-02-28T07:54:51;6.80;99.90
20829;DHT22;10575;50.124;8.582;2024-02-28T07:57:17;6.80;99.90
20829;DHT22;10575;50.124;8.582;2024-02-28T07:59:42;6.80;99.90
20829;DHT22;10575;50.124;8.582;2024-02-28T08:02:08;6.40;99.90
20829;DHT22;10575;50.124;8.582;2024-02-28T08:04:38;5.90;99.90
20829;DHT22;10575;50.124;8.582;2024-02-28T08:07:04;5.70;99.90
20829;DHT22;10575;50.124;8.582;2024-02-28T08:09:29;5.80;99.90
20829;DHT22;10575;50.124;8.582;2024-02-28T08:11:55;6.10;99.90
20829;DHT22;10575;50.124;8.582;2024-02-28T08:14:23;6.50;99.90
20829;DHT22;10575;50.124;8.582;2024-02-28T08:16:48;7.00;99.90
20829;DHT22;10575;50.124;8.582;2024-02-28T08:19:14;7.30;99.90
20829;DHT22;10575;50.124;8.582;2024-02-28T08:21:39;7.60;99.90
20829;DHT22;10575;50.124;8.582;2024-02-28T08:24:05;8.00;99.90
20829;DHT22;10575;50.124;8.582;2024-02-28T08:26:31;7.90;99.90
20829;DHT22;10575;50.124;8.582;2024-02-28T08:28:56;7.60;99.90
20829;DHT22;10575;50.124;8.582;2024-02-28T08:31:22;7.00;99.90
20829;DHT22;10575;50.124;8.582;2024-02-28T08:33:47;6.70;99.90
20829;DHT22;10575;50.124;8.582;2024-02-28T08:36:13;6.80;99.90
20829;DHT22;10575;50.124;8.582;2024-02-28T08:38:40;7.20;99.90
20829;DHT22;10575;50.124;8.582;2024-02-28T08:41:06;7.50;99.90
20829;DHT22;10575;50.124;8.582;2024-02-28T08:43:33;7.90;99.90
20829;DHT22;10575;50.124;8.582;2024-02-28T08:46:01;8.50;99.90
20829;DHT22;10575;50.124;8.582;2024-02-28T08:48:26;9.00;99.90
20829;DHT22;10575;50.124;8.582;2024-02-28T08:50:52;9.10;99.90
20829;DHT22;10575;50.124;8.582;2024-02-28T08:53:17;9.00;99.90
20829;DHT22;10575;50.124;8.582;2024-02-28T08:55:43;8.70;99.90
20829;DHT22;10575;50.124;8.582;2024-02-28T08:58:08;8.30;99.90
20829;DHT22;10575;50.124;8.582;2024-02-28T09:00:34;9.50;99.90
20829;DHT22;10575;50.124;8.582;2024-02-28T09:02:59;9.90;99.90
20829;DHT22;10575;50.124;8.582;2024-02-28T09:05:25;9.60;99.90
20829;DHT22;10575;50.124;8.582;2024-02-28T09:07:51;8.70;99.90
20829;DHT22;10575;50.124;8.582;2024-02-28T09:10:18;8.40;99.90
20829;DHT22;10575;50.124;8.582;2024-02-28T09:12:49;8.60;99.90
20829;DHT22;10575;50.124;8.582;2024-02-28T09:15:15;9.10;99.90
20829;DHT22;10575;50.124;8.582;2024-02-28T09:17:40;9.70;99.90
20829;DHT22;10575;50.124;8.582;2024-02-28T09:20:07;9.90;99.90
20829;DHT22;10575;50.124;8.582;2024-02-28T09:22:33;9.90;99.90
20829;DHT22;10575;50.124;8.582;2024-02-28T09:25:00;10.30;99.90
20829;DHT22;10575;50.124;8.582;2024-02-28T09:27:28;11.30;99.90
20829;DHT22;10575;50.124;8.582;2024-02-28T09:29:53;12.80;99.90
20829;DHT22;10575;50.124;8.582;2024-02-28T09:32:19;13.70;99.90
20829;DHT22;10575;50.124;8.582;2024-02-28T09:34:44;15.50;99.90
20829;DHT22;10575;50.124;8.582;2024-02-28T09:37:10;17.40;99.90
20829;DHT22;10575;50.124;8.582;2024-02-28T09:39:38;18.70;99.90
20829;DHT22;10575;50.124;8.582;2024-02-28T09:42:06;18.80;99.90
20829;DHT22;10575;50.124;8.582;2024-02-28T09:44:31;15.60;99.90
20829;DHT22;10575;50.124;8.582;2024-02-28T09:46:57;12.80;99.90
20829;DHT22;10575;50.124;8.582;2024-02-28T09:49:24;11.10;99.90
20829;DHT22;10575;50.124;8.582;2024-02-28T09:51:52;9.80;99.90
20829;DHT22;10575;50.124;8.582;2024-02-28T09:54:18;9.40;99.90
20829;DHT22;10575;50.124;8.582;2024-02-28T09:56:43;9.20;99.90
20829;DHT22;10575;50.124;8.582;2024-02-28T09:59:10;9.20;99.90
20829;DHT22;10575;50.124;8.582;2024-02-28T10:01:49;9.10;99.90
20829;DHT22;10575;50.124;8.582;2024-02-28T10:04:17;9.10;99.90
20829;DHT22;10575;50.124;8.582;2024-02-28T10:06:43;8.70;99.90
20829;DHT22;10575;50.124;8.582;2024-02-28T10:09:08;8.40;99.90
20829;DHT22;10575;50.124;8.582;2024-02-28T10:11:35;8.30;99.90
20829;DHT22;10575;50.124;8.582;2024-02-28T10:14:01;8.00;99.90
20829;DHT22;10575;50.124;8.582;2024-02-28T10:16:27;8.00;99.90
20829;DHT22;10575;50.124;8.582;2024-02-28T10:18:53;8.00;99.90
20829;DHT22;10575;50.124;8.582;2024-02-28T10:21:19;7.50;99.90
20829;DHT22;10575;50.124;8.582;2024-02-28T10:23:45;7.30;99.90
20829;DHT22;10575;50.124;8.582;2024-02-28T10:26:11;7.00;99.90
20829;DHT22;10575;50.124;8.582;2024-02-28T10:28:38;6.80;99.90
20829;DHT22;10575;50.124;8.582;2024-02-28T10:31:05;6.80;99.90
20829;DHT22;10575;50.124;8.582;2024-02-28T10:33:32;7.10;99.90
20829;DHT22;10575;50.124;8.582;2024-02-28T10:35:59;7.40;99.90
20829;DHT22;10575;50.124;8.582;2024-02-28T10:38:26;7.50;99.90
20829;DHT22;10575;50.124;8.582;2024-02-28T10:40:53;7.60;99.90
20829;DHT22;10575;50.124;8.582;2024-02-28T10:43:19;7.70;99.90
20829;DHT22;10575;50.124;8.582;2024-02-28T10:45:45;7.70;99.90
20829;DHT22;10575;50.124;8.582;2024-02-28T10:48:14;7.90;99.90
20829;DHT22;10575;50.124;8.582;2024-02-28T10:50:40;8.20;99.90
20829;DHT22;10575;50.124;8.582;2024-02-28T10:53:14;8.20;99.90
20829;DHT22;10575;50.124;8.582;2024-02-28T10:55:46;8.10;99.90
20829;DHT22;10575;50.124;8.582;2024-02-28T10:58:14;8.30;99.90
20829;DHT22;10575;50.124;8.582;2024-02-28T11:00:42;8.40;99.90
20829;DHT22;10575;50.124;8.582;2024-02-28T11:03:10;8.30;99.90
20829;DHT22;10575;50.124;8.582;2024-02-28T11:05:37;8.30;99.90
20829;DHT22;10575;50.124;8.582;2024-02-28T11:08:10;8.40;99.90
20829;DHT22;10575;50.124;8.582;2024-02-28T11:10:42;8.30;99.90
20829;DHT22;10575;50.124;8.582;2024-02-28T11:13:08;7.90;99.90
20829;DHT22;10575;50.124;8.582;2024-02-28T11:15:36;7.60;99.90
20829;DHT22;10575;50.124;8.582;2024-02-28T11:18:08;7.50;99.90
20829;DHT22;10575;50.124;8.582;2024-02-28T11:20:35;7.60;99.90
20829;DHT22;10575;50.124;8.582;2024-02-28T11:23:01;7.60;99.90
20829;DHT22;10575;50.124;8.582;2024-02-28T11:25:26;7.70;99.90
20829;DHT22;10575;50.124;8.582;2024-02-28T11:27:52;7.80;99.90
20829;DHT22;10575;50.124;8.582;2024-02-28T11:30:17;8.10;99.90
20829;DHT22;10575;50.124;8.582;2024-02-28T11:32:43;8.10;99.90
20829;DHT22;10575;50.124;8.582;2024-02-28T11:35:10;8.00;99.90
20829;DHT22;10575;50.124;8.582;2024-02-28T11:37:38;8.10;99.90
20829;DHT22;10575;50.124;8.582;2024-02-28T11:40:07;8.10;99.90
20829;DHT22;10575;50.124;8.582;2024-02-28T11:42:34;8.10;99.90
20829;DHT22;10575;50.124;8.582;2024-02-28T11:44:59;8.10;99.90
20829;DHT22;10575;50.124;8.582;2024-02-28T11:47:28;8.10;99.90
20829;DHT22;10575;50.124;8.582;2024-02-28T11:50:00;8.20;99.90
20829;DHT22;10575;50.124;8.582;2024-02-28T11:52:26;8.30;99.90
20829;DHT22;10575;50.124;8.582;2024-02-28T11:54:52;8.40;99.90
20829;DHT22;10575;50.124;8.582;2024-02-28T11:57:19;8.60;99.90
20829;DHT22;10575;50.124;8.582;2024-02-28T11:59:45;8.70;99.90
20829;DHT22;10575;50.124;8.582;2024-02-28T12:02:14;8.70;99.90
20829;DHT22;10575;50.124;8.582;2024-02-28T12:04:41;8.90;99.90
20829;DHT22;10575;50.124;8.582;2024-02-28T12:07:08;9.00;99.90
20829;DHT22;10575;50.124;8.582;2024-02-28T12:09:33;9.00;99.90
20829;DHT22;10575;50.124;8.582;2024-02-28T12:12:03;9.10;99.90
20829;DHT22;10575;50.124;8.582;2024-02-28T12:14:32;9.00;99.90
20829;DHT22;10575;50.124;8.582;2024-02-28T12:16:58;8.80;99.90
20829;DHT22;10575;50.124;8.582;2024-02-28T12:19:24;8.90;99.90
20829;DHT22;10575;50.124;8.582;2024-02-28T12:21:49;9.00;99.90
20829;DHT22;10575;50.124;8.582;2024-02-28T12:24:15;9.10;99.90
20829;DHT22;10575;50.124;8.582;2024-02-28T12:26:41;9.00;99.90
20829;DHT22;10575;50.124;8.582;2024-02-28T12:29:07;8.90;99.90
20829;DHT22;10575;50.124;8.582;2024-02-28T12:31:32;8.90;99.90
20829;DHT22;10575;50.124;8.582;2024-02-28T12:33:58;9.00;99.90
20829;DHT22;10575;50.124;8.582;2024-02-28T12:36:24;8.90;99.90
20829;DHT22;10575;50.124;8.582;2024-02-28T12:38:50;8.90;99.90
20829;DHT22;10575;50.124;8.582;2024-02-28T12:41:15;8.90;99.90
20829;DHT22;10575;50.124;8.582;2024-02-28T12:43:41;9.00;99.90
20829;DHT22;10575;50.124;8.582;2024-02-28T12:46:07;9.00;99.90
20829;DHT22;10575;50.124;8.582;2024-02-28T12:48:39;9.00;99.90
20829;DHT22;10575;50.124;8.582;2024-02-28T12:51:05;9.00;99.90
20829;DHT22;10575;50.124;8.582;2024-02-28T12:53:31;8.90;99.90
20829;DHT22;10575;50.124;8.582;2024-02-28T12:55:57;9.00;99.90
20829;DHT22;10575;50.124;8.582;2024-02-28T12:58:22;9.10;99.90
20829;DHT22;10575;50.124;8.582;2024-02-28T13:00:49;9.20;99.90
20829;DHT22;10575;50.124;8.582;2024-02-28T13:03:14;9.20;99.90
20829;DHT22;10575;50.124;8.582;2024-02-28T13:05:41;9.10;99.90
20829;DHT22;10575;50.124;8.582;2024-02-28T13:08:07;9.20;99.90
20829;DHT22;10575;50.124;8.582;2024-02-28T13:10:33;9.10;99.90
20829;DHT22;10575;50.124;8.582;2024-02-28T13:13:05;9.00;99.90
20829;DHT22;10575;50.124;8.582;2024-02-28T13:15:31;8.80;99.90
20829;DHT22;10575;50.124;8.582;2024-02-28T13:17:57;8.90;99.90
20829;DHT22;10575;50.124;8.582;2024-02-28T13:20:22;8.90;99.90
20829;DHT22;10575;50.124;8.582;2024-02-28T13:22:48;9.10;99.90
20829;DHT22;10575;50.124;8.582;2024-02-28T13:25:13;9.30;99.90
20829;DHT22;10575;50.124;8.582;2024-02-28T13:27:42;9.30;99.90
20829;DHT22;10575;50.124;8.582;2024-02-28T13:30:08;9.40;99.90
20829;DHT22;10575;50.124;8.582;2024-02-28T13:32:34;9.40;99.90
20829;DHT22;10575;50.124;8.582;2024-02-28T13:34:59;9.40;99.90
20829;DHT22;10575;50.124;8.582;2024-02-28T13:37:25;9.70;99.90
20829;DHT22;10575;50.124;8.582;2024-02-28T13:39:51;9.80;99.90
20829;DHT22;10575;50.124;8.582;2024-02-28T13:42:17;10.00;99.90
20829;DHT22;10575;50.124;8.582;2024-02-28T13:44:45;10.10;99.90
20829;DHT22;10575;50.124;8.582;2024-02-28T13:47:12;10.10;99.90
20829;DHT22;10575;50.124;8.582;2024-02-28T13:49:39;10.30;99.90
20829;DHT22;10575;50.124;8.582;2024-02-28T13:52:04;10.30;99.90
20829;DHT22;10575;50.124;8.582;2024-02-28T13:54:30;10.30;99.90
20829;DHT22;10575;50.124;8.582;2024-02-28T13:56:56;10.30;99.90
20829;DHT22;10575;50.124;8.582;2024-02-28T13:59:22;10.40;99.90
20829;DHT22;10575;50.124;8.582;2024-02-28T14:01:49;10.50;99.90
20829;DHT22;10575;50.124;8.582;2024-02-28T14:04:15;10.50;99.90
20829;DHT22;10575;50.124;8.582;2024-02-28T14:06:40;10.50;99.90
20829;DHT22;10575;50.124;8.582;2024-02-28T14:09:06;10.40;99.90
20829;DHT22;10575;50.124;8.582;2024-02-28T14:11:31;10.40;99.90
20829;DHT22;10575;50.124;8.582;2024-02-28T14:13:57;10.30;99.90
20829;DHT22;10575;50.124;8.582;2024-02-28T14:16:24;10.20;99.90
20829;DHT22;10575;50.124;8.582;2024-02-28T14:18:49;10.40;99.90
20829;DHT22;10575;50.124;8.582;2024-02-28T14:21:15;10.30;99.90
20829;DHT22;10575;50.124;8.582;2024-02-28T14:23:41;10.30;99.90
20829;DHT22;10575;50.124;8.582;2024-02-28T14:26:06;10.30;99.90
20829;DHT22;10575;50.124;8.582;2024-02-28T14:28:32;10.20;99.90
20829;DHT22;10575;50.124;8.582;2024-02-28T14:30:58;10.20;99.90
20829;DHT22;10575;50.124;8.582;2024-02-28T14:33:23;10.30;99.90
20829;DHT22;10575;50.124;8.582;2024-02-28T14:35:49;10.40;99.90
20829;DHT22;10575;50.124;8.582;2024-02-28T14:38:14;10.40;99.90
20829;DHT22;10575;50.124;8.582;2024-02-28T14:40:40;10.50;99.90
20829;DHT22;10575;50.124;8.582;2024-02-28T14:43:07;10.40;99.90
20829;DHT22;10575;50.124;8.582;2024-02-28T14:45:32;10.40;99.90
20829;DHT22;10575;50.124;8.582;2024-02-28T14:47:58;10.40;99.90
20829;DHT22;10575;50.124;8.582;2024-02-28T14:50:24;10.30;99.90
20829;DHT22;10575;50.124;8.582;2024-02-28T14:52:49;10.20;99.90
20829;DHT22;10575;50.124;8.582;2024-02-28T14:55:15;10.20;99.90
20829;DHT22;10575;50.124;8.582;2024-02-28T14:57:40;10.30;99.90
20829;DHT22;10575;50.124;8.582;2024-02-28T15:00:07;10.40;99.90
20829;DHT22;10575;50.124;8.582;2024-02-28T15:02:37;10.60;99.90
20829;DHT22;10575;50.124;8.582;2024-02-28T15:05:02;10.70;99.90
20829;DHT22;10575;50.124;8.582;2024-02-28T15:07:32;10.70;99.90
20829;DHT22;10575;50.124;8.582;2024-02-28T15:09:57;10.70;99.90
20829;DHT22;10575;50.124;8.582;2024-02-28T15:12:26;10.80;99.90
20829;DHT22;10575;50.124;8.582;2024-02-28T15:14:52;10.80;99.90
20829;DHT22;10575;50.124;8.582;2024-02-28T15:17:19;10.80;99.90
20829;DHT22;10575;50.124;8.582;2024-02-28T15:19:45;10.70;99.90
20829;DHT22;10575;50.124;8.582;2024-02-28T15:22:10;10.70;99.90
20829;DHT22;10575;50.124;8.582;2024-02-28T15:24:36;10.80;99.90
20829;DHT22;10575;50.124;8.582;2024-02-28T15:27:03;10.80;99.90
20829;DHT22;10575;50.124;8.582;2024-02-28T15:29:29;10.90;99.90
20829;DHT22;10575;50.124;8.582;2024-02-28T15:31:54;10.90;99.90
20829;DHT22;10575;50.124;8.582;2024-02-28T15:34:20;10.90;99.90
20829;DHT22;10575;50.124;8.582;2024-02-28T15:36:45;10.80;99.90
20829;DHT22;10575;50.124;8.582;2024-02-28T15:39:12;10.70;99.90
20829;DHT22;10575;50.124;8.582;2024-02-28T15:41:37;10.70;99.90
20829;DHT22;10575;50.124;8.582;2024-02-28T15:44:03;10.60;99.90